sensor_id;sensor_type;location;lat;lon;timestamp;P1;durP1;ratioP1;P2;durP2;ratioP2
39426;SDS011;25938;48.470;1.486;2022-12-18T00:01:04;10.65;;;7.15;;
39426;SDS011;25938;48.470;1.486;2022-12-18T00:03:38;11.15;;;6.95;;
39426;SDS011;25938;48.470;1.486;2022-12-18T00:06:04;12.70;;;7.47;;
39426;SDS011;25938;48.470;1.486;2022-12-18T00:08:29;10.48;;;6.72;;
39426;SDS011;25938;48.470;1.486;2022-12-18T00:10:55;11.65;;;7.07;;
39426;SDS011;25938;48.470;1.486;2022-12-18T00:13:27;10.43;;;8.15;;
39426;SDS011;25938;48.470;1.486;2022-12-18T00:15:53;14.32;;;8.80;;
39426;SDS011;25938;48.470;1.486;2022-12-18T00:18:18;12.13;;;7.57;;
39426;SDS011;25938;48.470;1.486;2022-12-18T00:20:44;12.95;;;7.03;;
39426;SDS011;25938;48.470;1.486;2022-12-18T00:23:10;11.25;;;7.15;;
39426;SDS011;25938;48.470;1.486;2022-12-18T00:25:35;13.32;;;7.40;;
39426;SDS011;25938;48.470;1.486;2022-12-18T00:28:02;12.65;;;7.95;;
39426;SDS011;25938;48.470;1.486;2022-12-18T00:30:28;13.75;;;8.13;;
39426;SDS011;25938;48.470;1.486;2022-12-18T00:32:54;13.32;;;8.55;;
39426;SDS011;25938;48.470;1.486;2022-12-18T00:35:20;12.13;;;6.75;;
39426;SDS011;25938;48.470;1.486;2022-12-18T00:37:46;12.13;;;7.38;;
39426;SDS011;25938;48.470;1.486;2022-12-18T00:40:12;13.35;;;7.45;;
39426;SDS011;25938;48.470;1.486;2022-12-18T00:42:38;13.23;;;8.02;;
39426;SDS011;25938;48.470;1.486;2022-12-18T00:45:29;12.43;;;7.43;;
39426;SDS011;25938;48.470;1.486;2022-12-18T00:47:55;14.43;;;7.15;;
39426;SDS011;25938;48.470;1.486;2022-12-18T00:50:22;12.75;;;8.00;;
39426;SDS011;25938;48.470;1.486;2022-12-18T00:52:49;14.10;;;7.20;;
39426;SDS011;25938;48.470;1.486;2022-12-18T00:55:14;13.52;;;8.40;;
39426;SDS011;25938;48.470;1.486;2022-12-18T00:57:40;13.05;;;8.30;;
39426;SDS011;25938;48.470;1.486;2022-12-18T01:00:07;12.32;;;7.78;;
39426;SDS011;25938;48.470;1.486;2022-12-18T01:02:35;15.18;;;7.22;;
39426;SDS011;25938;48.470;1.486;2022-12-18T01:05:00;12.52;;;7.63;;
39426;SDS011;25938;48.470;1.486;2022-12-18T01:07:26;12.85;;;8.38;;
39426;SDS011;25938;48.470;1.486;2022-12-18T01:09:51;12.70;;;7.95;;
39426;SDS011;25938;48.470;1.486;2022-12-18T01:12:17;14.57;;;8.27;;
39426;SDS011;25938;48.470;1.486;2022-12-18T01:14:43;13.57;;;8.07;;
39426;SDS011;25938;48.470;1.486;2022-12-18T01:17:08;11.80;;;6.80;;
39426;SDS011;25938;48.470;1.486;2022-12-18T01:19:34;15.55;;;8.77;;
39426;SDS011;25938;48.470;1.486;2022-12-18T01:21:59;13.43;;;7.78;;
39426;SDS011;25938;48.470;1.486;2022-12-18T01:24:25;10.43;;;8.00;;
39426;SDS011;25938;48.470;1.486;2022-12-18T01:26:51;14.57;;;7.82;;
39426;SDS011;25938;48.470;1.486;2022-12-18T01:29:16;12.57;;;8.68;;
39426;SDS011;25938;48.470;1.486;2022-12-18T01:31:42;11.05;;;7.38;;
39426;SDS011;25938;48.470;1.486;2022-12-18T01:34:08;13.10;;;7.55;;
39426;SDS011;25938;48.470;1.486;2022-12-18T01:36:35;13.82;;;7.85;;
39426;SDS011;25938;48.470;1.486;2022-12-18T01:39:06;12.25;;;8.27;;
39426;SDS011;25938;48.470;1.486;2022-12-18T01:41:34;11.52;;;7.10;;
39426;SDS011;25938;48.470;1.486;2022-12-18T01:47:26;12.50;;;8.23;;
39426;SDS011;25938;48.470;1.486;2022-12-18T01:52:38;13.55;;;8.52;;
39426;SDS011;25938;48.470;1.486;2022-12-18T01:55:05;12.85;;;7.47;;
39426;SDS011;25938;48.470;1.486;2022-12-18T01:57:32;15.77;;;8.10;;
39426;SDS011;25938;48.470;1.486;2022-12-18T01:59:59;12.05;;;8.13;;
39426;SDS011;25938;48.470;1.486;2022-12-18T02:02:28;12.82;;;7.95;;
39426;SDS011;25938;48.470;1.486;2022-12-18T02:04:55;14.68;;;9.25;;
39426;SDS011;25938;48.470;1.486;2022-12-18T02:09:47;13.07;;;8.13;;
39426;SDS011;25938;48.470;1.486;2022-12-18T02:12:24;11.30;;;7.28;;
39426;SDS011;25938;48.470;1.486;2022-12-18T02:17:58;13.10;;;8.25;;
39426;SDS011;25938;48.470;1.486;2022-12-18T02:20:45;14.85;;;8.00;;
39426;SDS011;25938;48.470;1.486;2022-12-18T02:23:24;16.00;;;8.80;;
39426;SDS011;25938;48.470;1.486;2022-12-18T02:25:55;13.43;;;8.52;;
39426;SDS011;25938;48.470;1.486;2022-12-18T02:28:42;14.15;;;8.43;;
39426;SDS011;25938;48.470;1.486;2022-12-18T02:31:21;12.45;;;8.02;;
39426;SDS011;25938;48.470;1.486;2022-12-18T02:33:52;12.40;;;7.93;;
39426;SDS011;25938;48.470;1.486;2022-12-18T02:36:21;13.45;;;7.72;;
39426;SDS011;25938;48.470;1.486;2022-12-18T02:38:48;13.80;;;8.32;;
39426;SDS011;25938;48.470;1.486;2022-12-18T02:41:15;10.82;;;7.68;;
39426;SDS011;25938;48.470;1.486;2022-12-18T02:43:46;14.38;;;8.85;;
39426;SDS011;25938;48.470;1.486;2022-12-18T02:46:23;13.18;;;8.68;;
39426;SDS011;25938;48.470;1.486;2022-12-18T02:48:55;12.38;;;7.93;;
39426;SDS011;25938;48.470;1.486;2022-12-18T02:51:38;13.40;;;8.75;;
39426;SDS011;25938;48.470;1.486;2022-12-18T02:54:28;10.90;;;7.88;;
39426;SDS011;25938;48.470;1.486;2022-12-18T03:00:18;11.75;;;8.50;;
39426;SDS011;25938;48.470;1.486;2022-12-18T03:08:38;10.52;;;8.07;;
39426;SDS011;25938;48.470;1.486;2022-12-18T03:11:11;12.73;;;8.25;;
39426;SDS011;25938;48.470;1.486;2022-12-18T03:13:49;13.02;;;9.32;;
39426;SDS011;25938;48.470;1.486;2022-12-18T03:16:24;11.75;;;7.75;;
39426;SDS011;25938;48.470;1.486;2022-12-18T03:18:58;14.63;;;8.65;;
39426;SDS011;25938;48.470;1.486;2022-12-18T03:21:28;13.65;;;8.13;;
39426;SDS011;25938;48.470;1.486;2022-12-18T03:23:59;14.38;;;8.18;;
39426;SDS011;25938;48.470;1.486;2022-12-18T03:26:25;15.40;;;9.00;;
39426;SDS011;25938;48.470;1.486;2022-12-18T03:28:53;13.07;;;8.38;;
39426;SDS011;25938;48.470;1.486;2022-12-18T03:31:24;12.48;;;8.77;;
39426;SDS011;25938;48.470;1.486;2022-12-18T03:33:52;11.63;;;8.15;;
39426;SDS011;25938;48.470;1.486;2022-12-18T03:36:20;14.23;;;8.65;;
39426;SDS011;25938;48.470;1.486;2022-12-18T03:38:46;12.30;;;7.70;;
39426;SDS011;25938;48.470;1.486;2022-12-18T03:46:41;13.38;;;9.05;;
39426;SDS011;25938;48.470;1.486;2022-12-18T03:49:43;12.80;;;8.20;;
39426;SDS011;25938;48.470;1.486;2022-12-18T03:52:23;13.98;;;8.50;;
39426;SDS011;25938;48.470;1.486;2022-12-18T03:54:57;10.55;;;7.75;;
39426;SDS011;25938;48.470;1.486;2022-12-18T03:57:25;12.30;;;8.13;;
39426;SDS011;25938;48.470;1.486;2022-12-18T03:59:54;12.27;;;7.60;;
39426;SDS011;25938;48.470;1.486;2022-12-18T04:02:24;15.45;;;8.60;;
39426;SDS011;25938;48.470;1.486;2022-12-18T04:04:52;11.23;;;7.25;;
39426;SDS011;25938;48.470;1.486;2022-12-18T04:07:21;13.85;;;8.45;;
39426;SDS011;25938;48.470;1.486;2022-12-18T04:09:48;12.95;;;8.48;;
39426;SDS011;25938;48.470;1.486;2022-12-18T04:12:15;12.85;;;8.88;;
39426;SDS011;25938;48.470;1.486;2022-12-18T04:14:40;13.20;;;8.75;;
39426;SDS011;25938;48.470;1.486;2022-12-18T04:17:06;15.75;;;9.35;;
39426;SDS011;25938;48.470;1.486;2022-12-18T04:19:32;12.27;;;8.30;;
39426;SDS011;25938;48.470;1.486;2022-12-18T04:21:57;12.77;;;8.48;;
39426;SDS011;25938;48.470;1.486;2022-12-18T04:24:23;12.32;;;8.55;;
39426;SDS011;25938;48.470;1.486;2022-12-18T04:26:49;13.60;;;8.27;;
39426;SDS011;25938;48.470;1.486;2022-12-18T04:29:14;13.57;;;8.48;;
39426;SDS011;25938;48.470;1.486;2022-12-18T04:31:40;11.63;;;7.57;;
39426;SDS011;25938;48.470;1.486;2022-12-18T04:34:05;13.90;;;7.85;;
39426;SDS011;25938;48.470;1.486;2022-12-18T04:36:31;16.17;;;9.60;;
39426;SDS011;25938;48.470;1.486;2022-12-18T04:38:57;14.68;;;8.93;;
39426;SDS011;25938;48.470;1.486;2022-12-18T04:41:22;18.23;;;8.35;;
39426;SDS011;25938;48.470;1.486;2022-12-18T04:43:48;17.10;;;9.20;;
39426;SDS011;25938;48.470;1.486;2022-12-18T04:46:14;13.13;;;8.13;;
39426;SDS011;25938;48.470;1.486;2022-12-18T04:48:39;12.82;;;8.63;;
39426;SDS011;25938;48.470;1.486;2022-12-18T04:51:06;15.77;;;8.25;;
39426;SDS011;25938;48.470;1.486;2022-12-18T04:53:32;12.35;;;7.65;;
39426;SDS011;25938;48.470;1.486;2022-12-18T04:56:05;13.77;;;8.18;;
39426;SDS011;25938;48.470;1.486;2022-12-18T04:58:35;12.23;;;9.38;;
39426;SDS011;25938;48.470;1.486;2022-12-18T05:01:02;11.98;;;8.77;;
39426;SDS011;25938;48.470;1.486;2022-12-18T05:03:28;13.75;;;8.07;;
39426;SDS011;25938;48.470;1.486;2022-12-18T05:05:54;13.85;;;8.40;;
39426;SDS011;25938;48.470;1.486;2022-12-18T05:08:19;15.18;;;9.00;;
39426;SDS011;25938;48.470;1.486;2022-12-18T05:10:45;12.65;;;8.30;;
39426;SDS011;25938;48.470;1.486;2022-12-18T05:13:11;12.80;;;8.10;;
39426;SDS011;25938;48.470;1.486;2022-12-18T05:15:36;15.45;;;8.70;;
39426;SDS011;25938;48.470;1.486;2022-12-18T05:18:02;17.13;;;8.45;;
39426;SDS011;25938;48.470;1.486;2022-12-18T05:20:29;10.45;;;7.88;;
39426;SDS011;25938;48.470;1.486;2022-12-18T05:22:55;12.23;;;8.05;;
39426;SDS011;25938;48.470;1.486;2022-12-18T05:25:22;13.73;;;8.63;;
39426;SDS011;25938;48.470;1.486;2022-12-18T05:27:48;12.27;;;8.95;;
39426;SDS011;25938;48.470;1.486;2022-12-18T05:30:14;13.30;;;8.25;;
39426;SDS011;25938;48.470;1.486;2022-12-18T05:32:41;14.25;;;9.40;;
39426;SDS011;25938;48.470;1.486;2022-12-18T05:35:07;14.52;;;8.13;;
39426;SDS011;25938;48.470;1.486;2022-12-18T05:37:34;13.38;;;9.10;;
39426;SDS011;25938;48.470;1.486;2022-12-18T05:40:01;14.55;;;9.07;;
39426;SDS011;25938;48.470;1.486;2022-12-18T05:42:27;13.65;;;8.68;;
39426;SDS011;25938;48.470;1.486;2022-12-18T05:44:53;13.45;;;9.57;;
39426;SDS011;25938;48.470;1.486;2022-12-18T05:47:19;13.38;;;8.52;;
39426;SDS011;25938;48.470;1.486;2022-12-18T05:49:44;12.55;;;8.65;;
39426;SDS011;25938;48.470;1.486;2022-12-18T05:52:10;12.73;;;7.97;;
39426;SDS011;25938;48.470;1.486;2022-12-18T05:54:36;11.95;;;8.57;;
39426;SDS011;25938;48.470;1.486;2022-12-18T05:57:01;15.75;;;9.60;;
39426;SDS011;25938;48.470;1.486;2022-12-18T05:59:27;14.50;;;8.23;;
39426;SDS011;25938;48.470;1.486;2022-12-18T06:01:52;14.40;;;8.27;;
39426;SDS011;25938;48.470;1.486;2022-12-18T06:04:18;12.68;;;8.07;;
39426;SDS011;25938;48.470;1.486;2022-12-18T06:06:44;12.68;;;8.20;;
39426;SDS011;25938;48.470;1.486;2022-12-18T06:09:09;13.10;;;8.63;;
39426;SDS011;25938;48.470;1.486;2022-12-18T06:11:35;13.32;;;7.65;;
39426;SDS011;25938;48.470;1.486;2022-12-18T06:14:02;13.88;;;8.82;;
39426;SDS011;25938;48.470;1.486;2022-12-18T06:16:29;13.73;;;8.90;;
39426;SDS011;25938;48.470;1.486;2022-12-18T06:18:58;10.13;;;8.15;;
39426;SDS011;25938;48.470;1.486;2022-12-18T06:21:25;14.07;;;8.10;;
39426;SDS011;25938;48.470;1.486;2022-12-18T06:23:52;12.55;;;7.70;;
39426;SDS011;25938;48.470;1.486;2022-12-18T06:26:17;13.32;;;8.20;;
39426;SDS011;25938;48.470;1.486;2022-12-18T06:28:43;15.18;;;8.10;;
39426;SDS011;25938;48.470;1.486;2022-12-18T06:31:09;14.80;;;9.05;;
39426;SDS011;25938;48.470;1.486;2022-12-18T06:33:35;13.88;;;8.32;;
39426;SDS011;25938;48.470;1.486;2022-12-18T06:36:01;12.45;;;7.70;;
39426;SDS011;25938;48.470;1.486;2022-12-18T06:38:29;15.18;;;8.75;;
39426;SDS011;25938;48.470;1.486;2022-12-18T06:40:55;13.90;;;9.43;;
39426;SDS011;25938;48.470;1.486;2022-12-18T06:43:21;14.98;;;9.25;;
39426;SDS011;25938;48.470;1.486;2022-12-18T06:45:47;12.00;;;8.02;;
39426;SDS011;25938;48.470;1.486;2022-12-18T06:48:17;14.50;;;9.00;;
39426;SDS011;25938;48.470;1.486;2022-12-18T06:50:44;14.27;;;8.98;;
39426;SDS011;25938;48.470;1.486;2022-12-18T06:53:10;15.85;;;9.55;;
39426;SDS011;25938;48.470;1.486;2022-12-18T06:55:35;16.35;;;8.93;;
39426;SDS011;25938;48.470;1.486;2022-12-18T06:58:01;13.98;;;8.57;;
39426;SDS011;25938;48.470;1.486;2022-12-18T07:00:27;13.93;;;8.43;;
39426;SDS011;25938;48.470;1.486;2022-12-18T07:02:52;12.90;;;8.25;;
39426;SDS011;25938;48.470;1.486;2022-12-18T07:05:18;14.32;;;9.27;;
39426;SDS011;25938;48.470;1.486;2022-12-18T07:07:43;16.45;;;9.68;;
39426;SDS011;25938;48.470;1.486;2022-12-18T07:10:09;15.50;;;9.48;;
39426;SDS011;25938;48.470;1.486;2022-12-18T07:12:35;14.13;;;9.40;;
39426;SDS011;25938;48.470;1.486;2022-12-18T07:15:01;11.48;;;7.82;;
39426;SDS011;25938;48.470;1.486;2022-12-18T07:17:27;16.38;;;10.15;;
39426;SDS011;25938;48.470;1.486;2022-12-18T07:19:53;16.08;;;9.65;;
39426;SDS011;25938;48.470;1.486;2022-12-18T07:22:18;12.85;;;9.02;;
39426;SDS011;25938;48.470;1.486;2022-12-18T07:24:44;12.73;;;8.30;;
39426;SDS011;25938;48.470;1.486;2022-12-18T07:27:10;14.13;;;9.15;;
39426;SDS011;25938;48.470;1.486;2022-12-18T07:29:35;13.48;;;8.77;;
39426;SDS011;25938;48.470;1.486;2022-12-18T07:32:01;16.73;;;10.43;;
39426;SDS011;25938;48.470;1.486;2022-12-18T07:34:26;16.02;;;9.43;;
39426;SDS011;25938;48.470;1.486;2022-12-18T07:36:52;14.18;;;9.02;;
39426;SDS011;25938;48.470;1.486;2022-12-18T07:39:18;14.13;;;9.07;;
39426;SDS011;25938;48.470;1.486;2022-12-18T07:41:43;12.48;;;7.60;;
39426;SDS011;25938;48.470;1.486;2022-12-18T07:44:29;14.02;;;8.32;;
39426;SDS011;25938;48.470;1.486;2022-12-18T07:46:54;12.32;;;7.95;;
39426;SDS011;25938;48.470;1.486;2022-12-18T07:49:20;13.77;;;9.00;;
39426;SDS011;25938;48.470;1.486;2022-12-18T07:51:46;14.85;;;9.07;;
39426;SDS011;25938;48.470;1.486;2022-12-18T07:54:14;17.55;;;9.45;;
39426;SDS011;25938;48.470;1.486;2022-12-18T07:56:39;13.55;;;9.30;;
39426;SDS011;25938;48.470;1.486;2022-12-18T07:59:05;15.60;;;8.73;;
39426;SDS011;25938;48.470;1.486;2022-12-18T08:01:31;15.20;;;9.02;;
39426;SDS011;25938;48.470;1.486;2022-12-18T08:03:57;15.25;;;9.52;;
39426;SDS011;25938;48.470;1.486;2022-12-18T08:06:23;12.70;;;8.40;;
39426;SDS011;25938;48.470;1.486;2022-12-18T08:08:50;14.55;;;9.00;;
39426;SDS011;25938;48.470;1.486;2022-12-18T08:11:19;11.80;;;9.05;;
39426;SDS011;25938;48.470;1.486;2022-12-18T08:13:45;12.90;;;9.15;;
39426;SDS011;25938;48.470;1.486;2022-12-18T08:16:10;15.05;;;8.73;;
39426;SDS011;25938;48.470;1.486;2022-12-18T08:18:36;13.15;;;8.65;;
39426;SDS011;25938;48.470;1.486;2022-12-18T08:21:12;16.70;;;9.30;;
39426;SDS011;25938;48.470;1.486;2022-12-18T08:23:43;14.18;;;8.77;;
39426;SDS011;25938;48.470;1.486;2022-12-18T08:26:13;14.93;;;9.90;;
39426;SDS011;25938;48.470;1.486;2022-12-18T08:28:39;16.27;;;9.40;;
39426;SDS011;25938;48.470;1.486;2022-12-18T08:31:04;15.52;;;9.48;;
39426;SDS011;25938;48.470;1.486;2022-12-18T08:33:30;16.13;;;9.32;;
39426;SDS011;25938;48.470;1.486;2022-12-18T08:35:57;15.40;;;9.65;;
39426;SDS011;25938;48.470;1.486;2022-12-18T08:38:24;13.27;;;9.25;;
39426;SDS011;25938;48.470;1.486;2022-12-18T08:40:54;15.95;;;9.57;;
39426;SDS011;25938;48.470;1.486;2022-12-18T08:43:26;16.05;;;9.13;;
39426;SDS011;25938;48.470;1.486;2022-12-18T08:46:11;14.40;;;9.30;;
39426;SDS011;25938;48.470;1.486;2022-12-18T08:48:37;14.55;;;9.00;;
39426;SDS011;25938;48.470;1.486;2022-12-18T08:51:02;14.57;;;9.65;;
39426;SDS011;25938;48.470;1.486;2022-12-18T08:53:28;17.55;;;9.73;;
39426;SDS011;25938;48.470;1.486;2022-12-18T08:55:54;18.00;;;10.85;;
39426;SDS011;25938;48.470;1.486;2022-12-18T08:58:21;15.82;;;11.07;;
39426;SDS011;25938;48.470;1.486;2022-12-18T09:00:47;14.65;;;9.55;;
39426;SDS011;25938;48.470;1.486;2022-12-18T09:03:13;13.02;;;9.20;;
39426;SDS011;25938;48.470;1.486;2022-12-18T09:05:40;16.58;;;9.05;;
39426;SDS011;25938;48.470;1.486;2022-12-18T09:08:06;17.25;;;10.40;;
39426;SDS011;25938;48.470;1.486;2022-12-18T09:10:31;16.98;;;10.38;;
39426;SDS011;25938;48.470;1.486;2022-12-18T09:12:57;16.15;;;10.23;;
39426;SDS011;25938;48.470;1.486;2022-12-18T09:15:23;18.48;;;10.43;;
39426;SDS011;25938;48.470;1.486;2022-12-18T09:17:49;16.73;;;10.63;;
39426;SDS011;25938;48.470;1.486;2022-12-18T09:20:15;15.45;;;9.93;;
39426;SDS011;25938;48.470;1.486;2022-12-18T09:22:41;16.98;;;9.95;;
39426;SDS011;25938;48.470;1.486;2022-12-18T09:25:07;17.48;;;9.90;;
39426;SDS011;25938;48.470;1.486;2022-12-18T09:27:33;16.50;;;9.35;;
39426;SDS011;25938;48.470;1.486;2022-12-18T09:29:59;17.70;;;10.93;;
39426;SDS011;25938;48.470;1.486;2022-12-18T09:32:25;15.43;;;9.40;;
39426;SDS011;25938;48.470;1.486;2022-12-18T09:34:51;16.48;;;9.73;;
39426;SDS011;25938;48.470;1.486;2022-12-18T09:37:18;17.45;;;10.65;;
39426;SDS011;25938;48.470;1.486;2022-12-18T09:39:44;14.13;;;9.55;;
39426;SDS011;25938;48.470;1.486;2022-12-18T09:42:12;15.27;;;10.77;;
39426;SDS011;25938;48.470;1.486;2022-12-18T09:44:50;17.23;;;10.15;;
39426;SDS011;25938;48.470;1.486;2022-12-18T09:47:19;15.13;;;10.10;;
39426;SDS011;25938;48.470;1.486;2022-12-18T09:49:57;18.77;;;9.00;;
39426;SDS011;25938;48.470;1.486;2022-12-18T09:55:00;15.13;;;9.82;;
39426;SDS011;25938;48.470;1.486;2022-12-18T09:57:28;17.00;;;9.68;;
39426;SDS011;25938;48.470;1.486;2022-12-18T10:00:19;16.42;;;9.90;;
39426;SDS011;25938;48.470;1.486;2022-12-18T10:02:44;19.92;;;11.45;;
39426;SDS011;25938;48.470;1.486;2022-12-18T10:05:20;14.48;;;10.05;;
39426;SDS011;25938;48.470;1.486;2022-12-18T10:08:17;14.43;;;9.35;;
39426;SDS011;25938;48.470;1.486;2022-12-18T10:10:47;15.93;;;9.55;;
39426;SDS011;25938;48.470;1.486;2022-12-18T10:13:27;13.77;;;8.32;;
39426;SDS011;25938;48.470;1.486;2022-12-18T10:16:16;14.32;;;9.10;;
39426;SDS011;25938;48.470;1.486;2022-12-18T10:27:37;21.27;;;9.68;;
39426;SDS011;25938;48.470;1.486;2022-12-18T10:29:56;20.98;;;8.98;;
39426;SDS011;25938;48.470;1.486;2022-12-18T10:32:26;18.70;;;9.25;;
39426;SDS011;25938;48.470;1.486;2022-12-18T10:34:55;15.40;;;8.48;;
39426;SDS011;25938;48.470;1.486;2022-12-18T10:37:26;18.27;;;10.48;;
39426;SDS011;25938;48.470;1.486;2022-12-18T10:40:07;23.67;;;10.45;;
39426;SDS011;25938;48.470;1.486;2022-12-18T10:42:38;15.80;;;9.43;;
39426;SDS011;25938;48.470;1.486;2022-12-18T10:45:12;13.35;;;8.65;;
39426;SDS011;25938;48.470;1.486;2022-12-18T10:47:46;17.50;;;9.43;;
39426;SDS011;25938;48.470;1.486;2022-12-18T10:50:47;28.23;;;17.25;;
39426;SDS011;25938;48.470;1.486;2022-12-18T10:53:05;22.38;;;14.75;;
39426;SDS011;25938;48.470;1.486;2022-12-18T10:55:31;19.55;;;14.45;;
39426;SDS011;25938;48.470;1.486;2022-12-18T10:58:45;19.20;;;14.32;;
39426;SDS011;25938;48.470;1.486;2022-12-18T11:06:20;21.92;;;13.95;;
39426;SDS011;25938;48.470;1.486;2022-12-18T11:11:31;22.83;;;12.80;;
39426;SDS011;25938;48.470;1.486;2022-12-18T11:13:59;17.85;;;13.18;;
39426;SDS011;25938;48.470;1.486;2022-12-18T11:16:45;19.45;;;13.35;;
39426;SDS011;25938;48.470;1.486;2022-12-18T11:21:58;20.02;;;12.85;;
39426;SDS011;25938;48.470;1.486;2022-12-18T11:27:03;17.95;;;11.82;;
39426;SDS011;25938;48.470;1.486;2022-12-18T11:29:35;16.50;;;11.77;;
39426;SDS011;25938;48.470;1.486;2022-12-18T11:32:12;12.30;;;9.85;;
39426;SDS011;25938;48.470;1.486;2022-12-18T11:34:48;16.42;;;10.88;;
39426;SDS011;25938;48.470;1.486;2022-12-18T11:37:18;13.95;;;10.10;;
39426;SDS011;25938;48.470;1.486;2022-12-18T11:39:46;15.77;;;10.88;;
39426;SDS011;25938;48.470;1.486;2022-12-18T11:42:24;13.93;;;10.13;;
39426;SDS011;25938;48.470;1.486;2022-12-18T11:47:39;14.75;;;9.73;;
39426;SDS011;25938;48.470;1.486;2022-12-18T11:50:24;13.40;;;9.82;;
39426;SDS011;25938;48.470;1.486;2022-12-18T11:52:53;15.05;;;9.35;;
39426;SDS011;25938;48.470;1.486;2022-12-18T12:00:42;15.38;;;10.52;;
39426;SDS011;25938;48.470;1.486;2022-12-18T12:03:27;13.20;;;9.15;;
39426;SDS011;25938;48.470;1.486;2022-12-18T12:06:15;14.23;;;11.05;;
39426;SDS011;25938;48.470;1.486;2022-12-18T12:12:10;11.40;;;8.05;;
39426;SDS011;25938;48.470;1.486;2022-12-18T12:22:33;11.30;;;7.63;;
39426;SDS011;25938;48.470;1.486;2022-12-18T12:36:15;13.80;;;8.48;;
39426;SDS011;25938;48.470;1.486;2022-12-18T12:38:42;10.27;;;6.82;;
39426;SDS011;25938;48.470;1.486;2022-12-18T12:41:15;12.38;;;8.25;;
39426;SDS011;25938;48.470;1.486;2022-12-18T12:44:05;9.75;;;7.22;;
39426;SDS011;25938;48.470;1.486;2022-12-18T12:46:35;10.45;;;7.40;;
39426;SDS011;25938;48.470;1.486;2022-12-18T12:49:08;10.50;;;8.00;;
39426;SDS011;25938;48.470;1.486;2022-12-18T12:51:40;11.90;;;8.45;;
39426;SDS011;25938;48.470;1.486;2022-12-18T12:54:12;10.02;;;7.25;;
39426;SDS011;25938;48.470;1.486;2022-12-18T12:59:37;11.93;;;7.85;;
39426;SDS011;25938;48.470;1.486;2022-12-18T13:07:35;10.90;;;6.32;;
39426;SDS011;25938;48.470;1.486;2022-12-18T13:12:56;7.97;;;5.80;;
39426;SDS011;25938;48.470;1.486;2022-12-18T13:15:50;11.32;;;7.07;;
39426;SDS011;25938;48.470;1.486;2022-12-18T13:18:31;11.88;;;7.30;;
39426;SDS011;25938;48.470;1.486;2022-12-18T13:31:06;15.32;;;9.48;;
39426;SDS011;25938;48.470;1.486;2022-12-18T13:41:32;11.48;;;6.88;;
39426;SDS011;25938;48.470;1.486;2022-12-18T13:46:46;20.40;;;11.23;;
39426;SDS011;25938;48.470;1.486;2022-12-18T13:51:50;14.95;;;7.80;;
39426;SDS011;25938;48.470;1.486;2022-12-18T13:56:59;14.10;;;7.63;;
39426;SDS011;25938;48.470;1.486;2022-12-18T13:59:25;12.55;;;7.90;;
39426;SDS011;25938;48.470;1.486;2022-12-18T14:01:59;15.00;;;8.73;;
39426;SDS011;25938;48.470;1.486;2022-12-18T14:09:36;8.98;;;6.40;;
39426;SDS011;25938;48.470;1.486;2022-12-18T14:12:06;12.15;;;7.53;;
39426;SDS011;25938;48.470;1.486;2022-12-18T14:17:55;11.70;;;7.00;;
39426;SDS011;25938;48.470;1.486;2022-12-18T14:20:27;10.00;;;7.35;;
39426;SDS011;25938;48.470;1.486;2022-12-18T14:22:54;11.55;;;7.07;;
39426;SDS011;25938;48.470;1.486;2022-12-18T14:25:22;11.85;;;7.13;;
39426;SDS011;25938;48.470;1.486;2022-12-18T14:27:50;10.77;;;6.93;;
39426;SDS011;25938;48.470;1.486;2022-12-18T14:33:08;9.87;;;7.53;;
39426;SDS011;25938;48.470;1.486;2022-12-18T14:35:41;20.92;;;7.70;;
39426;SDS011;25938;48.470;1.486;2022-12-18T14:40:57;39.30;;;10.43;;
39426;SDS011;25938;48.470;1.486;2022-12-18T14:43:27;32.35;;;10.55;;
39426;SDS011;25938;48.470;1.486;2022-12-18T14:45:55;36.95;;;11.18;;
39426;SDS011;25938;48.470;1.486;2022-12-18T14:48:24;32.65;;;8.93;;
39426;SDS011;25938;48.470;1.486;2022-12-18T14:50:57;30.15;;;9.70;;
39426;SDS011;25938;48.470;1.486;2022-12-18T14:53:38;29.40;;;10.23;;
39426;SDS011;25938;48.470;1.486;2022-12-18T14:56:17;20.38;;;9.23;;
39426;SDS011;25938;48.470;1.486;2022-12-18T15:03:58;23.92;;;8.38;;
39426;SDS011;25938;48.470;1.486;2022-12-18T15:06:27;18.75;;;7.97;;
39426;SDS011;25938;48.470;1.486;2022-12-18T15:08:53;22.60;;;8.32;;
39426;SDS011;25938;48.470;1.486;2022-12-18T15:11:54;20.77;;;8.70;;
39426;SDS011;25938;48.470;1.486;2022-12-18T15:14:30;14.95;;;8.48;;
39426;SDS011;25938;48.470;1.486;2022-12-18T15:16:57;17.08;;;7.43;;
39426;SDS011;25938;48.470;1.486;2022-12-18T15:19:40;20.08;;;7.22;;
39426;SDS011;25938;48.470;1.486;2022-12-18T15:24:45;17.30;;;7.93;;
39426;SDS011;25938;48.470;1.486;2022-12-18T15:27:21;18.77;;;10.88;;
39426;SDS011;25938;48.470;1.486;2022-12-18T15:32:33;17.70;;;7.43;;
39426;SDS011;25938;48.470;1.486;2022-12-18T15:35:13;18.40;;;7.82;;
39426;SDS011;25938;48.470;1.486;2022-12-18T15:37:38;18.35;;;6.55;;
39426;SDS011;25938;48.470;1.486;2022-12-18T15:40:04;13.85;;;7.03;;
39426;SDS011;25938;48.470;1.486;2022-12-18T15:42:31;13.95;;;8.20;;
39426;SDS011;25938;48.470;1.486;2022-12-18T15:47:40;13.15;;;6.75;;
39426;SDS011;25938;48.470;1.486;2022-12-18T15:50:09;13.85;;;8.60;;
39426;SDS011;25938;48.470;1.486;2022-12-18T15:52:53;14.30;;;7.85;;
39426;SDS011;25938;48.470;1.486;2022-12-18T15:55:21;12.70;;;6.85;;
39426;SDS011;25938;48.470;1.486;2022-12-18T15:58:07;13.45;;;6.80;;
39426;SDS011;25938;48.470;1.486;2022-12-18T16:00:35;8.90;;;6.78;;
39426;SDS011;25938;48.470;1.486;2022-12-18T16:03:03;10.63;;;5.97;;
39426;SDS011;25938;48.470;1.486;2022-12-18T16:05:29;10.25;;;5.43;;
39426;SDS011;25938;48.470;1.486;2022-12-18T16:07:55;10.55;;;6.18;;
39426;SDS011;25938;48.470;1.486;2022-12-18T16:10:21;12.85;;;6.63;;
39426;SDS011;25938;48.470;1.486;2022-12-18T16:12:47;11.88;;;6.97;;
39426;SDS011;25938;48.470;1.486;2022-12-18T16:15:13;8.20;;;4.82;;
39426;SDS011;25938;48.470;1.486;2022-12-18T16:17:41;7.15;;;5.43;;
39426;SDS011;25938;48.470;1.486;2022-12-18T16:20:15;17.95;;;6.95;;
39426;SDS011;25938;48.470;1.486;2022-12-18T16:22:42;8.38;;;5.53;;
39426;SDS011;25938;48.470;1.486;2022-12-18T16:27:50;8.30;;;5.60;;
39426;SDS011;25938;48.470;1.486;2022-12-18T16:30:17;7.47;;;6.30;;
39426;SDS011;25938;48.470;1.486;2022-12-18T16:32:45;8.38;;;5.03;;
39426;SDS011;25938;48.470;1.486;2022-12-18T16:35:11;9.80;;;5.78;;
39426;SDS011;25938;48.470;1.486;2022-12-18T16:37:39;8.80;;;5.63;;
39426;SDS011;25938;48.470;1.486;2022-12-18T16:40:06;9.70;;;5.47;;
39426;SDS011;25938;48.470;1.486;2022-12-18T16:42:34;8.48;;;6.55;;
39426;SDS011;25938;48.470;1.486;2022-12-18T16:45:03;11.13;;;6.57;;
39426;SDS011;25938;48.470;1.486;2022-12-18T16:47:31;7.50;;;5.30;;
39426;SDS011;25938;48.470;1.486;2022-12-18T16:49:57;7.53;;;5.43;;
39426;SDS011;25938;48.470;1.486;2022-12-18T16:52:23;8.30;;;5.22;;
39426;SDS011;25938;48.470;1.486;2022-12-18T16:54:49;8.57;;;6.32;;
39426;SDS011;25938;48.470;1.486;2022-12-18T16:57:16;7.28;;;5.47;;
39426;SDS011;25938;48.470;1.486;2022-12-18T16:59:43;6.45;;;4.43;;
39426;SDS011;25938;48.470;1.486;2022-12-18T17:02:12;9.10;;;5.15;;
39426;SDS011;25938;48.470;1.486;2022-12-18T17:04:46;7.35;;;5.10;;
39426;SDS011;25938;48.470;1.486;2022-12-18T17:07:12;8.93;;;6.82;;
39426;SDS011;25938;48.470;1.486;2022-12-18T17:09:39;7.38;;;5.40;;
39426;SDS011;25938;48.470;1.486;2022-12-18T17:12:05;5.90;;;4.70;;
39426;SDS011;25938;48.470;1.486;2022-12-18T17:14:31;8.48;;;5.40;;